createdAt,value
2022-08-26T00:01:55.994Z,14.20
2022-08-26T00:04:25.343Z,14.20
2022-08-26T00:06:53.805Z,14.20
2022-08-26T00:09:20.949Z,14.20
2022-08-26T00:11:48.073Z,14.30
2022-08-26T00:14:16.214Z,14.40
2022-08-26T00:16:47.114Z,14.40
2022-08-26T00:19:18.646Z,14.40
2022-08-26T00:21:48.669Z,14.50
2022-08-26T00:24:17.162Z,14.50
2022-08-26T00:26:44.182Z,14.50
2022-08-26T00:29:12.305Z,14.50
2022-08-26T00:31:40.501Z,14.50
2022-08-26T00:34:09.627Z,14.50
2022-08-26T00:36:39.526Z,14.50
2022-08-26T00:39:07.869Z,14.50
2022-08-26T00:41:39.210Z,14.60
2022-08-26T00:44:06.632Z,14.60
2022-08-26T00:46:46.480Z,14.60
2022-08-26T00:49:16.727Z,14.70
2022-08-26T00:51:52.758Z,14.80
2022-08-26T00:54:22.931Z,14.80
2022-08-26T00:56:53.449Z,14.90
2022-08-26T00:59:20.483Z,15.00
2022-08-26T01:01:47.868Z,15.00
2022-08-26T01:04:20.441Z,15.10
2022-08-26T01:06:50.228Z,15.10
2022-08-26T01:09:19.068Z,15.20
2022-08-26T01:11:48.567Z,15.30
2022-08-26T01:14:17.704Z,15.30
2022-08-26T01:16:48.015Z,15.40
2022-08-26T01:19:41.309Z,15.40
2022-08-26T01:22:14.079Z,15.40
2022-08-26T01:24:42.502Z,15.40
2022-08-26T01:27:12.551Z,15.50
2022-08-26T01:29:42.728Z,15.50
2022-08-26T01:32:14.631Z,15.50
2022-08-26T01:34:41.740Z,15.50
2022-08-26T01:37:18.371Z,15.60
2022-08-26T01:39:49.316Z,15.60
2022-08-26T01:42:18.040Z,15.60
2022-08-26T01:44:57.627Z,15.60
2022-08-26T01:47:26.657Z,15.60
2022-08-26T01:49:59.455Z,15.70
2022-08-26T01:52:28.654Z,15.70
2022-08-26T01:54:57.258Z,15.70
2022-08-26T01:57:25.833Z,15.70
2022-08-26T01:59:57.806Z,15.70
2022-08-26T02:02:24.919Z,15.70
2022-08-26T02:04:57.594Z,15.70
2022-08-26T02:07:26.770Z,15.70
2022-08-26T02:09:55.388Z,15.70
2022-08-26T02:12:22.833Z,15.80
2022-08-26T02:14:53.791Z,15.80
2022-08-26T02:17:26.242Z,15.80
2022-08-26T02:19:53.761Z,15.80
2022-08-26T02:22:22.871Z,15.80
2022-08-26T02:25:01.286Z,15.80
2022-08-26T02:27:32.896Z,15.80
2022-08-26T02:30:09.181Z,15.90
2022-08-26T02:32:37.379Z,15.90
2022-08-26T02:35:08.148Z,15.90
2022-08-26T02:37:35.456Z,15.90
2022-08-26T02:40:04.084Z,15.90
2022-08-26T02:42:31.506Z,15.90
2022-08-26T02:44:58.863Z,15.90
2022-08-26T02:47:26.084Z,15.90
2022-08-26T02:49:56.072Z,15.90
2022-08-26T02:52:22.969Z,15.90
2022-08-26T02:54:50.033Z,15.80
2022-08-26T02:57:17.596Z,15.90
2022-08-26T02:59:44.458Z,15.90
2022-08-26T03:02:12.301Z,15.90
2022-08-26T03:04:40.593Z,15.90
2022-08-26T03:07:24.787Z,15.90
2022-08-26T03:09:52.984Z,15.90
2022-08-26T03:12:20.409Z,15.90
2022-08-26T03:14:48.227Z,15.90
2022-08-26T03:17:15.995Z,15.90
2022-08-26T03:19:42.944Z,15.90
2022-08-26T03:22:09.849Z,15.90
2022-08-26T03:24:37.960Z,15.90
2022-08-26T03:27:07.399Z,15.90
2022-08-26T03:29:53.177Z,15.90
2022-08-26T03:32:20.769Z,15.90
2022-08-26T03:34:47.657Z,15.90
2022-08-26T03:37:14.813Z,16.00
2022-08-26T03:39:41.858Z,16.00
2022-08-26T03:42:09.179Z,16.00
2022-08-26T03:44:40.105Z,15.90
2022-08-26T03:47:09.572Z,15.90
2022-08-26T03:49:36.541Z,15.90
2022-08-26T03:52:04.405Z,15.90
2022-08-26T03:54:31.551Z,15.90
2022-08-26T03:56:58.471Z,15.90
2022-08-26T03:59:25.528Z,15.90
2022-08-26T04:01:52.490Z,15.90
2022-08-26T04:04:22.861Z,15.90
2022-08-26T04:06:58.361Z,16.00
2022-08-26T04:09:26.589Z,16.00
2022-08-26T04:11:54.543Z,16.00
2022-08-26T04:14:24.514Z,16.00
2022-08-26T04:16:52.866Z,16.00
2022-08-26T04:19:23.366Z,16.00
2022-08-26T04:21:53.295Z,16.10
2022-08-26T04:24:22.727Z,16.10
2022-08-26T04:26:50.372Z,16.10
2022-08-26T04:29:23.687Z,16.20
2022-08-26T04:31:55.344Z,16.20
2022-08-26T04:34:27.237Z,16.20
2022-08-26T04:36:56.471Z,16.20
2022-08-26T04:39:23.645Z,16.20
2022-08-26T04:41:55.155Z,16.30
2022-08-26T04:44:24.918Z,16.30
2022-08-26T04:46:52.948Z,16.40
2022-08-26T04:49:21.033Z,16.40
2022-08-26T04:51:48.899Z,16.50
2022-08-26T04:54:16.518Z,16.50
2022-08-26T04:56:45.982Z,16.60
2022-08-26T04:59:18.168Z,16.60
2022-08-26T05:01:49.503Z,16.70
2022-08-26T05:04:18.979Z,16.70
2022-08-26T05:06:49.735Z,16.80
2022-08-26T05:09:18.582Z,16.80
2022-08-26T05:11:48.632Z,16.80
2022-08-26T05:14:23.290Z,16.90
2022-08-26T05:16:51.035Z,16.90
2022-08-26T05:19:18.860Z,17.00
2022-08-26T05:21:48.542Z,17.10
2022-08-26T05:24:17.263Z,17.10
2022-08-26T05:26:45.430Z,17.10
2022-08-26T05:29:12.895Z,17.20
2022-08-26T05:31:39.979Z,17.30
2022-08-26T05:34:07.502Z,17.30
2022-08-26T05:36:37.162Z,17.40
2022-08-26T05:39:08.162Z,17.40
2022-08-26T05:41:41.051Z,17.50
2022-08-26T05:44:09.523Z,17.60
2022-08-26T05:46:37.930Z,17.60
2022-08-26T05:49:06.533Z,17.70
2022-08-26T05:51:41.546Z,17.80
2022-08-26T05:54:10.486Z,17.90
2022-08-26T05:56:39.673Z,17.90
2022-08-26T05:59:14.542Z,18.00
2022-08-26T06:01:43.746Z,18.10
2022-08-26T06:04:12.031Z,18.20
2022-08-26T06:06:41.610Z,18.20
2022-08-26T06:09:10.955Z,18.30
2022-08-26T06:11:39.224Z,18.40
2022-08-26T06:14:07.923Z,18.50
2022-08-26T06:16:38.630Z,18.50
2022-08-26T06:19:10.563Z,18.60
2022-08-26T06:21:41.107Z,18.70
2022-08-26T06:24:31.957Z,18.70
2022-08-26T06:27:04.737Z,18.80
2022-08-26T06:29:33.634Z,18.90
2022-08-26T06:32:01.326Z,18.90
2022-08-26T06:34:29.918Z,19.00
2022-08-26T06:36:59.755Z,19.10
2022-08-26T06:39:30.884Z,19.10
2022-08-26T06:41:59.285Z,19.20
2022-08-26T06:44:26.883Z,19.20
2022-08-26T06:46:53.890Z,19.40
2022-08-26T06:49:27.009Z,19.40
2022-08-26T06:51:58.585Z,19.50
2022-08-26T06:54:26.519Z,19.60
2022-08-26T06:56:53.796Z,19.60
2022-08-26T06:59:21.822Z,19.70
2022-08-26T07:01:49.616Z,19.80
2022-08-26T07:04:20.149Z,19.80
2022-08-26T07:06:52.476Z,19.90
2022-08-26T07:09:22.061Z,20.00
2022-08-26T07:11:50.578Z,20.10
2022-08-26T07:14:19.356Z,20.10
2022-08-26T07:16:49.888Z,20.20
2022-08-26T07:19:30.592Z,20.20
2022-08-26T07:22:04.019Z,20.30
2022-08-26T07:24:33.144Z,20.30
2022-08-26T07:27:05.443Z,20.40
2022-08-26T07:29:33.384Z,20.40
2022-08-26T07:32:01.777Z,20.50
2022-08-26T07:34:29.127Z,20.50
2022-08-26T07:36:57.056Z,20.70
2022-08-26T07:39:25.150Z,20.70
2022-08-26T07:41:52.618Z,20.70
2022-08-26T07:44:19.518Z,20.90
2022-08-26T07:46:52.376Z,20.90
2022-08-26T07:49:23.165Z,21.00
2022-08-26T07:51:51.369Z,21.10
2022-08-26T07:54:18.890Z,21.10
2022-08-26T07:56:46.946Z,21.20
2022-08-26T07:59:15.367Z,21.30
2022-08-26T08:01:45.133Z,21.30
2022-08-26T08:04:17.926Z,21.30
2022-08-26T08:06:45.670Z,21.40
2022-08-26T08:09:14.870Z,21.40
2022-08-26T08:11:44.919Z,21.50
2022-08-26T08:14:13.294Z,21.60
2022-08-26T08:16:42.426Z,21.70
2022-08-26T08:19:14.318Z,21.70
2022-08-26T08:21:41.987Z,21.80
2022-08-26T08:24:10.067Z,21.80
2022-08-26T08:26:37.129Z,21.90
2022-08-26T08:29:04.722Z,22.00
2022-08-26T08:31:56.203Z,22.10
2022-08-26T08:34:21.605Z,22.10
2022-08-26T08:36:49.531Z,22.20
2022-08-26T08:39:17.523Z,22.20
2022-08-26T08:42:19.803Z,22.30
2022-08-26T08:44:55.526Z,22.40
2022-08-26T08:47:34.199Z,22.50
2022-08-26T08:50:11.554Z,22.60
2022-08-26T08:52:43.984Z,22.70
2022-08-26T08:55:18.068Z,22.70
2022-08-26T08:58:02.196Z,22.80
2022-08-26T09:00:39.860Z,22.90
2022-08-26T09:03:38.003Z,22.90
2022-08-26T09:06:16.960Z,22.90
2022-08-26T09:08:50.518Z,23.00
2022-08-26T09:11:20.308Z,23.20
2022-08-26T09:13:52.400Z,23.30
2022-08-26T09:16:27.675Z,23.40
2022-08-26T09:18:54.672Z,23.40
2022-08-26T09:21:26.050Z,23.50
2022-08-26T09:23:56.763Z,23.50
2022-08-26T09:26:45.532Z,23.60
2022-08-26T09:29:24.449Z,23.80
2022-08-26T09:31:53.302Z,23.80
2022-08-26T09:34:21.168Z,23.80
2022-08-26T09:37:00.052Z,23.90
2022-08-26T09:39:37.707Z,24.00
2022-08-26T09:42:23.384Z,24.00
2022-08-26T09:44:53.062Z,24.00
2022-08-26T09:47:29.795Z,24.10
2022-08-26T09:50:09.862Z,24.10
2022-08-26T09:52:40.472Z,24.30
2022-08-26T09:55:09.598Z,24.40
2022-08-26T09:58:09.087Z,24.50
2022-08-26T10:00:39.979Z,24.50
2022-08-26T10:03:11.334Z,24.50
2022-08-26T10:05:44.196Z,24.60
2022-08-26T10:08:28.625Z,24.50
2022-08-26T10:10:58.400Z,24.60
2022-08-26T10:13:33.271Z,24.70
2022-08-26T10:16:29.852Z,24.80
2022-08-26T10:19:09.764Z,24.80
2022-08-26T10:21:41.331Z,24.90
2022-08-26T10:24:12.712Z,25.00
2022-08-26T10:26:48.574Z,25.00
2022-08-26T10:29:28.360Z,25.00
2022-08-26T10:32:03.453Z,25.10
2022-08-26T10:34:32.788Z,25.10
2022-08-26T10:37:16.713Z,25.20
2022-08-26T10:39:55.263Z,25.40
2022-08-26T10:42:49.933Z,25.30
2022-08-26T10:45:22.001Z,25.30
2022-08-26T10:47:55.711Z,25.40
2022-08-26T10:50:27.673Z,25.40
2022-08-26T10:53:00.806Z,25.40
2022-08-26T10:56:00.453Z,25.50
2022-08-26T10:58:45.760Z,25.50
2022-08-26T11:01:50.827Z,25.40
2022-08-26T11:04:58.922Z,25.60
2022-08-26T11:07:31.873Z,25.50
2022-08-26T11:10:01.298Z,25.50
2022-08-26T11:12:37.554Z,25.60
2022-08-26T11:15:14.571Z,25.70
2022-08-26T11:17:45.021Z,25.80
2022-08-26T11:20:29.909Z,25.80
2022-08-26T11:23:22.457Z,25.70
2022-08-26T11:26:01.037Z,25.70
2022-08-26T11:28:39.939Z,25.70
2022-08-26T11:31:26.842Z,25.60
2022-08-26T11:34:07.113Z,25.50
2022-08-26T11:36:47.749Z,25.50
2022-08-26T11:39:36.900Z,25.60
2022-08-26T11:42:36.325Z,25.80
2022-08-26T11:45:19.563Z,25.80
2022-08-26T11:47:46.888Z,25.60
2022-08-26T11:50:23.573Z,25.70
2022-08-26T11:53:06.556Z,25.70
2022-08-26T11:55:41.843Z,25.70
2022-08-26T11:58:12.433Z,25.60
2022-08-26T12:00:54.460Z,25.70
2022-08-26T12:03:26.365Z,25.60
2022-08-26T12:05:54.282Z,25.60
2022-08-26T12:08:27.789Z,25.60
2022-08-26T12:11:10.096Z,25.60
2022-08-26T12:13:39.074Z,25.50
2022-08-26T12:16:06.706Z,25.60
2022-08-26T12:18:37.519Z,25.60
2022-08-26T12:21:22.764Z,25.60
2022-08-26T12:23:57.046Z,25.70
2022-08-26T12:26:32.892Z,26.00
2022-08-26T12:29:10.010Z,26.00
2022-08-26T12:31:48.190Z,25.80
2022-08-26T12:34:18.172Z,25.70
2022-08-26T12:39:37.163Z,25.60
2022-08-26T12:42:12.394Z,25.60
2022-08-26T12:45:01.639Z,25.40
2022-08-26T12:47:39.011Z,25.50
2022-08-26T12:50:42.199Z,25.50
2022-08-26T12:53:09.164Z,25.60
2022-08-26T12:55:50.439Z,25.70
2022-08-26T12:58:31.747Z,25.60
2022-08-26T13:01:05.196Z,25.80
2022-08-26T13:03:35.300Z,25.90
2022-08-26T13:06:15.674Z,26.00
2022-08-26T13:08:58.435Z,26.10
2022-08-26T13:11:30.007Z,26.10
2022-08-26T13:14:06.918Z,26.00
2022-08-26T13:16:35.831Z,25.90
2022-08-26T13:19:10.758Z,25.90
2022-08-26T13:21:47.832Z,25.90
2022-08-26T13:24:21.787Z,26.10
2022-08-26T13:26:50.192Z,26.20
2022-08-26T13:29:17.999Z,26.40
2022-08-26T13:31:45.936Z,26.60
2022-08-26T13:34:15.590Z,26.70
2022-08-26T13:36:44.916Z,26.80
2022-08-26T13:39:12.459Z,26.80
2022-08-26T13:41:39.729Z,26.80
2022-08-26T13:44:07.102Z,26.60
2022-08-26T13:46:34.206Z,26.40
2022-08-26T13:49:01.453Z,26.40
2022-08-26T13:51:29.222Z,26.20
2022-08-26T13:53:57.649Z,26.00
2022-08-26T13:56:27.497Z,25.60
2022-08-26T13:58:54.470Z,25.50
2022-08-26T14:01:21.446Z,25.40
2022-08-26T14:03:48.587Z,25.40
2022-08-26T14:06:16.297Z,25.40
2022-08-26T14:08:43.359Z,25.40
2022-08-26T14:11:10.576Z,25.40
2022-08-26T14:13:37.543Z,25.20
2022-08-26T14:16:09.093Z,25.20
2022-08-26T14:18:41.851Z,25.20
2022-08-26T14:21:12.815Z,25.20
2022-08-26T14:23:40.275Z,25.20
2022-08-26T14:26:08.464Z,25.30
2022-08-26T14:28:35.734Z,25.40
2022-08-26T14:31:03.415Z,25.40
2022-08-26T14:33:34.000Z,25.40
2022-08-26T14:36:20.180Z,25.30
2022-08-26T14:38:47.502Z,25.30
2022-08-26T14:41:17.352Z,25.40
2022-08-26T14:43:51.035Z,25.50
2022-08-26T14:46:18.511Z,25.70
2022-08-26T14:48:45.543Z,25.70
2022-08-26T14:51:12.614Z,25.80
2022-08-26T14:53:58.200Z,25.90
2022-08-26T14:56:25.351Z,26.20
2022-08-26T14:58:52.273Z,26.40
2022-08-26T15:01:19.265Z,26.30
2022-08-26T15:03:46.214Z,26.20
2022-08-26T15:06:15.155Z,26.20
2022-08-26T15:08:42.075Z,26.30
2022-08-26T15:11:09.056Z,26.30
2022-08-26T15:13:36.073Z,26.10
2022-08-26T15:16:03.667Z,26.10
2022-08-26T15:18:31.753Z,25.90
2022-08-26T15:20:58.669Z,26.00
2022-08-26T15:23:25.615Z,25.80
2022-08-26T15:25:52.563Z,25.60
2022-08-26T15:28:19.668Z,25.30
2022-08-26T15:30:49.658Z,25.30
2022-08-26T15:33:17.379Z,25.40
2022-08-26T15:35:44.803Z,25.50
2022-08-26T15:38:12.646Z,25.40
2022-08-26T15:40:39.765Z,25.40
2022-08-26T15:43:25.760Z,25.40
2022-08-26T15:45:54.744Z,25.30
2022-08-26T15:48:23.086Z,25.20
2022-08-26T15:50:53.576Z,25.10
2022-08-26T15:53:22.052Z,25.00
2022-08-26T15:55:50.097Z,25.00
2022-08-26T15:58:17.230Z,25.00
2022-08-26T16:00:44.944Z,25.00
2022-08-26T16:03:12.120Z,25.00
2022-08-26T16:05:40.947Z,25.10
2022-08-26T16:08:08.514Z,25.00
2022-08-26T16:10:45.468Z,25.00
2022-08-26T16:13:16.616Z,25.10
2022-08-26T16:15:43.739Z,25.20
2022-08-26T16:18:10.741Z,25.30
2022-08-26T16:20:38.789Z,25.30
2022-08-26T16:23:07.446Z,25.20
2022-08-26T16:25:34.521Z,25.40
2022-08-26T16:28:01.524Z,25.20
2022-08-26T16:30:33.444Z,25.20
2022-08-26T16:33:00.302Z,25.20
2022-08-26T16:35:27.258Z,25.20
2022-08-26T16:37:56.282Z,25.10
2022-08-26T16:40:23.513Z,25.10
2022-08-26T16:42:50.935Z,25.00
2022-08-26T16:45:18.056Z,25.10
2022-08-26T16:47:44.997Z,24.90
2022-08-26T16:50:12.986Z,24.90
2022-08-26T16:52:40.440Z,24.80
2022-08-26T16:55:13.899Z,24.70
2022-08-26T16:57:43.502Z,24.60
2022-08-26T17:00:17.373Z,24.40
2022-08-26T17:02:45.893Z,24.10
2022-08-26T17:05:13.559Z,24.00
2022-08-26T17:07:40.548Z,23.80
2022-08-26T17:10:08.321Z,23.80
2022-08-26T17:12:36.443Z,23.70
2022-08-26T17:15:06.040Z,23.60
2022-08-26T17:17:33.965Z,23.50
2022-08-26T17:20:05.181Z,23.40
2022-08-26T17:22:34.610Z,23.30
2022-08-26T17:25:02.329Z,23.20
2022-08-26T17:27:30.140Z,23.00
2022-08-26T17:29:57.061Z,22.80
2022-08-26T17:32:23.951Z,22.70
2022-08-26T17:34:50.987Z,22.60
2022-08-26T17:37:17.933Z,22.50
2022-08-26T17:39:44.784Z,22.40
2022-08-26T17:42:11.919Z,22.30
2022-08-26T17:44:39.469Z,22.20
2022-08-26T17:47:07.137Z,22.10
2022-08-26T17:49:35.526Z,22.10
2022-08-26T17:52:02.676Z,22.00
2022-08-26T17:54:30.203Z,21.90
2022-08-26T17:56:58.839Z,21.80
2022-08-26T17:59:30.536Z,21.70
2022-08-26T18:01:58.991Z,21.60
2022-08-26T18:04:25.962Z,21.50
2022-08-26T18:06:52.865Z,21.50
2022-08-26T18:09:19.751Z,21.30
2022-08-26T18:11:46.647Z,21.30
2022-08-26T18:14:13.491Z,21.30
2022-08-26T18:16:41.663Z,21.20
2022-08-26T18:19:09.052Z,21.10
2022-08-26T18:21:36.462Z,21.10
2022-08-26T18:24:03.648Z,21.10
2022-08-26T18:26:33.630Z,21.00
2022-08-26T18:29:01.867Z,20.90
2022-08-26T18:31:29.697Z,20.90
2022-08-26T18:33:56.857Z,20.90
2022-08-26T18:36:36.558Z,20.80
2022-08-26T18:39:05.424Z,20.80
2022-08-26T18:41:39.866Z,20.80
2022-08-26T18:44:09.478Z,20.70
2022-08-26T18:46:38.696Z,20.70
2022-08-26T18:49:06.063Z,20.60
2022-08-26T18:51:34.357Z,20.50
2022-08-26T18:54:05.291Z,20.50
2022-08-26T18:56:33.843Z,20.40
2022-08-26T18:59:01.094Z,20.40
2022-08-26T19:01:29.442Z,20.40
2022-08-26T19:03:58.487Z,20.40
2022-08-26T19:06:26.935Z,20.30
2022-08-26T19:08:54.237Z,20.30
2022-08-26T19:11:32.362Z,20.20
2022-08-26T19:14:07.377Z,20.20
2022-08-26T19:16:35.267Z,20.20
2022-08-26T19:19:03.369Z,20.20
2022-08-26T19:21:33.110Z,20.10
2022-08-26T19:24:02.543Z,20.10
2022-08-26T19:26:30.675Z,20.10
2022-08-26T19:28:59.026Z,20.10
2022-08-26T19:31:26.592Z,20.00
2022-08-26T19:33:53.660Z,20.00
2022-08-26T19:36:25.574Z,20.00
2022-08-26T19:38:53.553Z,20.00
2022-08-26T19:41:27.767Z,19.90
2022-08-26T19:44:07.847Z,19.90
2022-08-26T19:46:35.906Z,19.90
2022-08-26T19:49:03.783Z,19.80
2022-08-26T19:51:32.878Z,19.80
2022-08-26T19:54:00.983Z,19.80
2022-08-26T19:56:28.250Z,19.80
2022-08-26T19:58:56.131Z,19.80
2022-08-26T20:01:23.574Z,19.70
2022-08-26T20:03:50.590Z,19.80
2022-08-26T20:06:17.731Z,19.70
2022-08-26T20:08:45.285Z,19.80
2022-08-26T20:11:16.146Z,19.70
2022-08-26T20:13:44.294Z,19.70
2022-08-26T20:16:12.045Z,19.70
2022-08-26T20:18:59.688Z,19.60
2022-08-26T20:21:29.307Z,19.60
2022-08-26T20:24:03.495Z,19.60
2022-08-26T20:26:33.350Z,19.60
2022-08-26T20:29:00.704Z,19.60
2022-08-26T20:31:28.681Z,19.60
2022-08-26T20:33:57.286Z,19.60
2022-08-26T20:36:27.077Z,19.60
2022-08-26T20:38:55.308Z,19.50
2022-08-26T20:41:24.139Z,19.50
2022-08-26T20:43:52.234Z,19.60
2022-08-26T20:46:22.925Z,19.60
2022-08-26T20:48:52.700Z,19.50
2022-08-26T20:51:20.170Z,19.50
2022-08-26T20:53:47.271Z,19.50
2022-08-26T20:56:15.520Z,19.50
2022-08-26T20:58:43.133Z,19.50
2022-08-26T21:01:21.035Z,19.50
2022-08-26T21:03:50.459Z,19.50
2022-08-26T21:06:17.626Z,19.50
2022-08-26T21:08:45.069Z,19.50
2022-08-26T21:11:12.269Z,19.50
2022-08-26T21:14:03.442Z,19.40
2022-08-26T21:16:27.197Z,19.40
2022-08-26T21:18:54.174Z,19.40
2022-08-26T21:21:25.136Z,19.40
2022-08-26T21:23:52.291Z,19.40
2022-08-26T21:26:19.262Z,19.40
2022-08-26T21:28:46.609Z,19.40
2022-08-26T21:31:17.886Z,19.30
2022-08-26T21:33:45.616Z,19.40
2022-08-26T21:36:14.181Z,19.30
2022-08-26T21:38:42.147Z,19.30
2022-08-26T21:41:16.436Z,19.30
2022-08-26T21:43:43.498Z,19.30
2022-08-26T21:46:14.426Z,19.30
2022-08-26T21:48:47.628Z,19.30
2022-08-26T21:51:19.279Z,19.30
2022-08-26T21:53:46.805Z,19.30
2022-08-26T21:56:15.708Z,19.30
2022-08-26T21:58:43.089Z,19.30
2022-08-26T22:01:13.168Z,19.30
2022-08-26T22:03:46.842Z,19.30
2022-08-26T22:06:16.839Z,19.30
2022-08-26T22:08:44.071Z,19.30
2022-08-26T22:11:11.415Z,19.30
2022-08-26T22:13:40.596Z,19.30
2022-08-26T22:16:08.157Z,19.30
2022-08-26T22:18:36.098Z,19.30
2022-08-26T22:21:06.994Z,19.30
2022-08-26T22:23:35.303Z,19.30
2022-08-26T22:26:03.133Z,19.30
2022-08-26T22:28:30.231Z,19.30
2022-08-26T22:30:57.526Z,19.30
2022-08-26T22:33:24.813Z,19.30
2022-08-26T22:35:53.075Z,19.30
2022-08-26T22:38:20.958Z,19.30
2022-08-26T22:40:50.610Z,19.30
2022-08-26T22:43:18.963Z,19.30
2022-08-26T22:45:47.796Z,19.30
2022-08-26T22:48:18.213Z,19.30
2022-08-26T22:50:45.956Z,19.30
2022-08-26T22:53:13.725Z,19.30
2022-08-26T22:55:41.233Z,19.30
2022-08-26T22:58:08.279Z,19.30
2022-08-26T23:00:35.477Z,19.30
2022-08-26T23:03:04.236Z,19.30
2022-08-26T23:05:31.836Z,19.30
2022-08-26T23:07:59.436Z,19.30
2022-08-26T23:10:26.490Z,19.30
2022-08-26T23:12:53.784Z,19.30
2022-08-26T23:15:21.695Z,19.30
2022-08-26T23:17:58.446Z,19.30
2022-08-26T23:20:37.346Z,19.30
2022-08-26T23:23:04.668Z,19.30
2022-08-26T23:25:32.491Z,19.30
2022-08-26T23:28:00.783Z,19.30
2022-08-26T23:30:29.614Z,19.30
2022-08-26T23:32:56.662Z,19.30
2022-08-26T23:35:24.636Z,19.30
2022-08-26T23:37:53.099Z,19.30
2022-08-26T23:40:34.753Z,19.40
2022-08-26T23:43:04.748Z,19.30
2022-08-26T23:45:32.729Z,19.40
2022-08-26T23:47:59.788Z,19.30
2022-08-26T23:50:49.601Z,19.30
2022-08-26T23:53:20.884Z,19.30
2022-08-26T23:55:50.140Z,19.30
2022-08-26T23:58:18.792Z,19.40
